createdAt,value
2022-10-08T00:00:59.053Z,2.47
2022-10-08T00:03:28.600Z,2.22
2022-10-08T00:05:59.796Z,2.30
2022-10-08T00:08:27.684Z,1.83
2022-10-08T00:11:00.792Z,2.08
2022-10-08T00:13:28.708Z,2.30
2022-10-08T00:15:56.996Z,2.05
2022-10-08T00:18:24.443Z,2.50
2022-10-08T00:20:52.206Z,2.13
2022-10-08T00:23:19.427Z,2.35
2022-10-08T00:25:47.629Z,1.98
2022-10-08T00:28:14.824Z,2.65
2022-10-08T00:30:41.872Z,2.58
2022-10-08T00:33:09.337Z,2.72
2022-10-08T00:35:40.392Z,2.13
2022-10-08T00:38:07.883Z,2.20
2022-10-08T00:40:44.769Z,2.70
2022-10-08T00:43:15.711Z,2.40
2022-10-08T00:45:46.903Z,2.10
2022-10-08T00:48:21.426Z,2.33
2022-10-08T00:50:48.581Z,2.00
2022-10-08T00:53:15.717Z,2.10
2022-10-08T00:55:44.092Z,2.40
2022-10-08T00:58:20.999Z,2.35
2022-10-08T01:00:48.563Z,1.90
2022-10-08T01:03:15.861Z,2.30
2022-10-08T01:05:55.440Z,2.10
2022-10-08T01:08:35.585Z,1.70
2022-10-08T01:11:09.033Z,2.35
2022-10-08T01:14:01.583Z,2.13
2022-10-08T01:16:32.887Z,2.05
2022-10-08T01:19:22.075Z,2.25
2022-10-08T01:22:23.866Z,2.13
2022-10-08T01:25:13.320Z,1.88
2022-10-08T01:27:46.000Z,1.75
2022-10-08T01:30:17.478Z,2.03
2022-10-08T01:33:23.049Z,2.05
2022-10-08T01:35:54.196Z,2.55
2022-10-08T01:38:21.300Z,1.80
2022-10-08T01:40:48.548Z,1.95
2022-10-08T01:43:17.173Z,1.77
2022-10-08T01:45:48.791Z,2.10
2022-10-08T01:48:19.577Z,1.95
2022-10-08T01:51:03.985Z,1.90
2022-10-08T01:53:37.679Z,2.05
2022-10-08T01:56:05.606Z,2.00
2022-10-08T01:58:38.736Z,2.20
2022-10-08T02:01:11.035Z,2.47
2022-10-08T02:03:38.285Z,1.73
2022-10-08T02:06:05.837Z,1.70
2022-10-08T02:08:32.897Z,1.80
2022-10-08T02:10:59.940Z,2.10
2022-10-08T02:13:27.323Z,1.90
2022-10-08T02:16:07.108Z,2.50
2022-10-08T02:18:46.972Z,2.17
2022-10-08T02:21:24.749Z,2.53
2022-10-08T02:24:17.415Z,2.20
2022-10-08T02:26:50.004Z,2.20
2022-10-08T02:29:20.666Z,1.83
2022-10-08T02:31:49.670Z,2.38
2022-10-08T02:34:21.724Z,1.98
2022-10-08T02:37:01.572Z,1.80
2022-10-08T02:39:31.894Z,2.35
2022-10-08T02:42:01.343Z,1.92
2022-10-08T02:44:39.248Z,2.13
2022-10-08T02:47:08.851Z,2.03
2022-10-08T02:49:38.971Z,2.10
2022-10-08T02:52:06.230Z,1.77
2022-10-08T02:54:34.506Z,1.77
2022-10-08T02:57:38.418Z,1.98
2022-10-08T03:00:06.406Z,2.28
2022-10-08T03:02:46.347Z,2.85
2022-10-08T03:05:18.041Z,2.75
2022-10-08T03:07:45.426Z,3.25
2022-10-08T03:10:12.949Z,2.95
2022-10-08T03:12:40.114Z,2.90
2022-10-08T03:15:08.601Z,2.80
2022-10-08T03:17:41.787Z,2.70
2022-10-08T03:20:09.434Z,2.33
2022-10-08T03:22:36.671Z,2.85
2022-10-08T03:25:04.104Z,2.10
2022-10-08T03:27:35.435Z,1.80
2022-10-08T03:30:03.338Z,2.00
2022-10-08T03:32:31.370Z,2.15
2022-10-08T03:34:58.757Z,2.05
2022-10-08T03:37:27.039Z,1.92
2022-10-08T03:39:54.209Z,2.22
2022-10-08T03:42:21.457Z,2.13
2022-10-08T03:44:48.512Z,2.05
2022-10-08T03:47:15.707Z,2.20
2022-10-08T03:49:43.013Z,1.98
2022-10-08T03:52:10.102Z,1.75
2022-10-08T03:54:37.764Z,1.95
2022-10-08T03:57:04.939Z,1.80
2022-10-08T03:59:34.305Z,1.73
2022-10-08T04:02:04.987Z,2.22
2022-10-08T04:04:32.161Z,2.22
2022-10-08T04:07:00.417Z,1.95
2022-10-08T04:09:27.526Z,1.75
2022-10-08T04:11:54.623Z,1.90
2022-10-08T04:14:21.686Z,2.80
2022-10-08T04:16:48.799Z,1.80
2022-10-08T04:19:24.875Z,1.90
2022-10-08T04:21:52.042Z,2.75
2022-10-08T04:24:19.342Z,2.30
2022-10-08T04:26:46.583Z,1.60
2022-10-08T04:29:13.997Z,1.80
2022-10-08T04:31:41.448Z,1.77
2022-10-08T04:34:10.593Z,2.05
2022-10-08T04:36:37.698Z,1.90
2022-10-08T04:39:04.950Z,1.55
2022-10-08T04:41:32.045Z,2.10
2022-10-08T04:44:01.188Z,2.63
2022-10-08T04:46:28.619Z,1.85
2022-10-08T04:48:56.270Z,1.75
2022-10-08T04:51:24.713Z,1.70
2022-10-08T04:53:53.815Z,2.53
2022-10-08T04:56:23.001Z,1.80
2022-10-08T04:58:50.329Z,1.70
2022-10-08T05:01:20.742Z,1.52
2022-10-08T05:03:49.249Z,2.40
2022-10-08T05:06:19.507Z,2.00
2022-10-08T05:08:46.822Z,1.70
2022-10-08T05:11:14.549Z,2.13
2022-10-08T05:13:42.167Z,2.13
2022-10-08T05:16:11.013Z,1.75
2022-10-08T05:18:38.454Z,2.67
2022-10-08T05:21:10.673Z,1.95
2022-10-08T05:23:40.508Z,1.55
2022-10-08T05:26:28.757Z,2.55
2022-10-08T05:29:07.792Z,1.75
2022-10-08T05:31:36.712Z,1.95
2022-10-08T05:34:03.798Z,2.22
2022-10-08T05:36:33.076Z,1.92
2022-10-08T05:39:01.059Z,2.00
2022-10-08T05:41:32.049Z,1.85
2022-10-08T05:44:02.726Z,1.60
2022-10-08T05:46:31.280Z,1.73
2022-10-08T05:49:00.459Z,1.30
2022-10-08T05:51:28.528Z,1.70
2022-10-08T05:53:56.913Z,1.98
2022-10-08T05:56:24.569Z,2.78
2022-10-08T05:58:52.252Z,1.95
2022-10-08T06:01:24.523Z,2.75
2022-10-08T06:03:52.993Z,1.55
2022-10-08T06:06:21.251Z,2.10
2022-10-08T06:08:48.462Z,1.40
2022-10-08T06:11:15.981Z,1.58
2022-10-08T06:13:43.166Z,1.67
2022-10-08T06:16:11.128Z,1.83
2022-10-08T06:18:40.435Z,1.35
2022-10-08T06:21:12.106Z,1.60
2022-10-08T06:23:40.073Z,1.30
2022-10-08T06:26:09.155Z,2.78
2022-10-08T06:28:37.102Z,1.65
2022-10-08T06:31:04.658Z,1.80
2022-10-08T06:33:32.156Z,1.38
2022-10-08T06:36:06.846Z,1.45
2022-10-08T06:38:34.435Z,1.58
2022-10-08T06:41:02.202Z,1.45
2022-10-08T06:43:29.733Z,1.50
2022-10-08T06:46:00.618Z,1.65
2022-10-08T06:48:28.264Z,1.65
2022-10-08T06:51:12.461Z,1.83
2022-10-08T06:53:39.926Z,1.48
2022-10-08T06:56:10.656Z,1.50
2022-10-08T06:58:38.475Z,1.60
2022-10-08T07:01:06.600Z,1.38
2022-10-08T07:03:34.090Z,1.83
2022-10-08T07:06:02.487Z,1.75
2022-10-08T07:08:29.873Z,2.08
2022-10-08T07:11:12.378Z,1.60
2022-10-08T07:13:39.697Z,1.52
2022-10-08T07:16:08.608Z,1.90
2022-10-08T07:18:36.187Z,1.88
2022-10-08T07:21:03.691Z,1.75
2022-10-08T07:23:31.521Z,1.67
2022-10-08T07:26:10.670Z,1.60
2022-10-08T07:28:39.574Z,1.77
2022-10-08T07:31:10.266Z,6.78
2022-10-08T07:33:37.707Z,1.70
2022-10-08T07:36:19.310Z,1.42
2022-10-08T07:38:46.563Z,1.92
2022-10-08T07:41:14.338Z,1.75
2022-10-08T07:43:41.549Z,2.15
2022-10-08T07:46:10.385Z,1.63
2022-10-08T07:48:38.237Z,2.00
2022-10-08T07:51:16.238Z,1.58
2022-10-08T07:53:43.825Z,1.50
2022-10-08T07:56:12.336Z,2.42
2022-10-08T07:58:39.996Z,1.52
2022-10-08T08:01:09.012Z,1.30
2022-10-08T08:04:02.715Z,1.67
2022-10-08T08:06:33.742Z,1.55
2022-10-08T08:09:01.221Z,1.80
2022-10-08T08:11:28.582Z,1.48
2022-10-08T08:13:55.980Z,1.73
2022-10-08T08:16:27.694Z,1.40
2022-10-08T08:18:56.632Z,1.58
2022-10-08T08:21:34.293Z,1.50
2022-10-08T08:24:10.880Z,1.45
2022-10-08T08:26:39.074Z,1.10
2022-10-08T08:29:14.449Z,2.15
2022-10-08T08:31:44.682Z,1.50
2022-10-08T08:36:46.284Z,1.85
2022-10-08T08:39:18.280Z,1.40
2022-10-08T08:41:45.409Z,1.40
2022-10-08T08:44:19.057Z,1.73
2022-10-08T08:46:58.501Z,1.50
2022-10-08T08:49:34.692Z,1.40
2022-10-08T08:52:02.731Z,1.63
2022-10-08T08:54:29.987Z,1.80
2022-10-08T08:56:57.230Z,1.23
2022-10-08T08:59:33.863Z,1.38
2022-10-08T09:02:06.316Z,1.95
2022-10-08T09:04:45.067Z,1.70
2022-10-08T09:07:15.631Z,1.20
2022-10-08T09:09:45.606Z,1.50
2022-10-08T09:12:43.950Z,1.83
2022-10-08T09:15:21.965Z,1.55
2022-10-08T09:17:51.900Z,1.80
2022-10-08T09:20:20.434Z,1.73
2022-10-08T09:22:49.593Z,1.85
2022-10-08T09:25:20.112Z,1.85
2022-10-08T09:27:51.413Z,1.73
2022-10-08T09:30:24.840Z,1.55
2022-10-08T09:32:56.586Z,1.30
2022-10-08T09:35:23.966Z,2.08
2022-10-08T09:37:51.520Z,1.55
2022-10-08T09:40:22.505Z,1.20
2022-10-08T09:43:13.695Z,1.25
2022-10-08T09:45:48.036Z,1.65
2022-10-08T09:48:19.888Z,1.50
2022-10-08T09:50:54.172Z,1.30
2022-10-08T09:53:23.241Z,1.55
2022-10-08T09:56:03.937Z,1.48
2022-10-08T09:58:35.845Z,1.50
2022-10-08T10:01:12.629Z,1.58
2022-10-08T10:03:40.077Z,1.60
2022-10-08T10:06:07.166Z,1.60
2022-10-08T10:09:08.474Z,1.70
2022-10-08T10:11:53.065Z,1.58
2022-10-08T10:14:26.108Z,1.50
2022-10-08T10:16:59.007Z,1.10
2022-10-08T10:19:46.688Z,1.45
2022-10-08T10:22:15.910Z,1.50
2022-10-08T10:25:04.494Z,1.42
2022-10-08T10:27:33.104Z,1.73
2022-10-08T10:30:04.748Z,1.63
2022-10-08T10:32:35.960Z,1.20
2022-10-08T10:35:11.502Z,1.33
2022-10-08T10:37:51.762Z,1.60
2022-10-08T10:40:41.889Z,2.15
2022-10-08T10:43:37.323Z,1.30
2022-10-08T10:46:39.627Z,1.75
2022-10-08T10:49:15.737Z,1.17
2022-10-08T10:52:21.065Z,1.67
2022-10-08T10:55:30.478Z,1.38
2022-10-08T10:58:13.218Z,1.20
2022-10-08T11:01:06.770Z,1.30
2022-10-08T11:03:46.996Z,2.05
2022-10-08T11:06:38.283Z,1.30
2022-10-08T11:09:29.147Z,1.95
2022-10-08T11:12:25.229Z,1.35
2022-10-08T11:15:27.145Z,1.83
2022-10-08T11:18:35.772Z,1.02
2022-10-08T11:21:06.303Z,1.20
2022-10-08T11:23:46.070Z,1.85
2022-10-08T11:26:31.020Z,1.77
2022-10-08T11:29:17.648Z,1.00
2022-10-08T11:31:46.651Z,1.45
2022-10-08T11:34:34.797Z,1.30
2022-10-08T11:37:29.789Z,1.35
2022-10-08T11:40:25.065Z,1.25
2022-10-08T11:43:06.011Z,1.27
2022-10-08T11:45:37.759Z,1.58
2022-10-08T11:48:23.725Z,1.02
2022-10-08T11:50:51.047Z,1.05
2022-10-08T11:53:21.737Z,1.38
2022-10-08T11:55:57.198Z,1.33
2022-10-08T11:58:32.467Z,1.58
2022-10-08T12:01:07.138Z,1.10
2022-10-08T12:03:40.921Z,1.30
2022-10-08T12:06:25.996Z,1.20
2022-10-08T12:09:04.113Z,1.30
2022-10-08T12:11:40.281Z,1.20
2022-10-08T12:14:14.627Z,0.93
2022-10-08T12:16:56.149Z,1.00
2022-10-08T12:19:40.724Z,1.05
2022-10-08T12:22:31.505Z,1.38
2022-10-08T12:25:07.095Z,1.08
2022-10-08T12:27:38.718Z,1.58
2022-10-08T12:30:08.362Z,1.75
2022-10-08T12:32:43.852Z,0.90
2022-10-08T12:35:26.547Z,1.05
2022-10-08T12:38:13.816Z,0.90
2022-10-08T12:41:23.150Z,1.02
2022-10-08T12:43:56.723Z,1.23
2022-10-08T12:46:50.277Z,1.20
2022-10-08T12:49:44.003Z,1.38
2022-10-08T12:52:17.931Z,1.50
2022-10-08T12:54:54.121Z,1.20
2022-10-08T12:57:38.964Z,1.00
2022-10-08T13:00:12.455Z,1.00
2022-10-08T13:02:42.295Z,1.20
2022-10-08T13:05:31.593Z,1.08
2022-10-08T13:08:35.473Z,1.00
2022-10-08T13:11:14.024Z,1.25
2022-10-08T13:13:42.190Z,1.00
2022-10-08T13:16:18.084Z,1.13
2022-10-08T13:18:53.937Z,1.17
2022-10-08T13:21:37.784Z,1.20
2022-10-08T13:24:25.437Z,1.17
2022-10-08T13:26:56.665Z,1.30
2022-10-08T13:29:34.840Z,1.25
2022-10-08T13:32:14.786Z,1.30
2022-10-08T13:34:49.435Z,1.23
2022-10-08T13:37:32.430Z,1.10
2022-10-08T13:40:02.620Z,1.25
2022-10-08T13:42:41.569Z,1.00
2022-10-08T13:45:25.939Z,1.35
2022-10-08T13:47:54.332Z,1.67
2022-10-08T13:50:23.997Z,1.73
2022-10-08T13:52:54.988Z,1.20
2022-10-08T13:55:26.877Z,1.13
2022-10-08T13:57:58.260Z,1.60
2022-10-08T14:00:25.774Z,1.33
2022-10-08T14:02:53.686Z,1.25
2022-10-08T14:05:26.321Z,1.10
2022-10-08T14:07:56.328Z,1.13
2022-10-08T14:10:24.979Z,1.35
2022-10-08T14:12:57.135Z,1.30
2022-10-08T14:15:25.611Z,1.40
2022-10-08T14:18:18.077Z,1.17
2022-10-08T14:21:07.877Z,1.67
2022-10-08T14:24:03.207Z,1.00
2022-10-08T14:26:40.828Z,1.00
2022-10-08T14:29:31.636Z,1.27
2022-10-08T14:32:31.289Z,0.90
2022-10-08T14:38:52.884Z,1.45
2022-10-08T14:44:13.405Z,1.20
2022-10-08T14:46:58.653Z,1.30
2022-10-08T14:49:26.275Z,0.90
2022-10-08T14:51:55.580Z,1.20
2022-10-08T14:54:23.565Z,1.13
2022-10-08T14:56:50.910Z,1.13
2022-10-08T14:59:18.680Z,1.20
2022-10-08T15:01:48.715Z,1.65
2022-10-08T15:04:18.522Z,1.30
2022-10-08T15:06:50.391Z,1.27
2022-10-08T15:09:19.864Z,1.23
2022-10-08T15:11:48.397Z,1.13
2022-10-08T15:14:16.709Z,1.17
2022-10-08T15:16:45.178Z,1.00
2022-10-08T15:19:13.079Z,0.93
2022-10-08T15:24:28.915Z,1.08
2022-10-08T15:26:59.008Z,1.10
2022-10-08T15:29:28.284Z,1.00
2022-10-08T15:31:57.873Z,1.23
2022-10-08T15:34:28.896Z,0.82
2022-10-08T15:40:17.195Z,1.33
2022-10-08T15:43:08.000Z,1.27
2022-10-08T15:45:47.559Z,1.20
2022-10-08T15:48:27.360Z,1.10
2022-10-08T15:51:05.679Z,1.90
2022-10-08T15:53:39.996Z,1.10
2022-10-08T15:56:07.642Z,1.02
2022-10-08T15:58:50.855Z,1.33
2022-10-08T16:01:21.197Z,1.10
2022-10-08T16:03:49.335Z,1.15
2022-10-08T16:06:20.260Z,1.13
2022-10-08T16:08:53.611Z,1.85
2022-10-08T16:11:45.431Z,1.30
2022-10-08T16:14:26.543Z,1.42
2022-10-08T16:17:04.007Z,0.95
2022-10-08T16:19:38.568Z,1.27
2022-10-08T16:22:10.823Z,1.13
2022-10-08T16:24:44.094Z,1.67
2022-10-08T16:27:13.119Z,1.10
2022-10-08T16:29:43.108Z,0.90
2022-10-08T16:32:14.011Z,1.10
2022-10-08T16:34:53.592Z,1.35
2022-10-08T16:37:25.345Z,1.20
2022-10-08T16:43:04.927Z,1.02
2022-10-08T16:45:40.399Z,1.50
2022-10-08T16:48:38.461Z,1.30
2022-10-08T16:51:19.774Z,1.10
2022-10-08T16:53:55.194Z,1.08
2022-10-08T16:56:38.978Z,1.40
2022-10-08T16:59:21.693Z,1.80
2022-10-08T17:05:01.860Z,1.65
2022-10-08T17:07:43.776Z,1.25
2022-10-08T17:10:16.895Z,1.55
2022-10-08T17:13:07.153Z,1.25
2022-10-08T17:15:34.918Z,1.17
2022-10-08T17:18:15.347Z,1.40
2022-10-08T17:23:51.119Z,1.30
2022-10-08T17:26:31.849Z,1.80
2022-10-08T17:29:17.560Z,1.15
2022-10-08T17:32:15.142Z,1.20
2022-10-08T17:35:25.631Z,1.38
2022-10-08T17:41:41.840Z,1.30
2022-10-08T17:44:27.913Z,1.60
2022-10-08T17:47:07.565Z,1.83
2022-10-08T17:49:46.053Z,2.20
2022-10-08T17:52:20.612Z,2.55
2022-10-08T17:55:04.259Z,2.30
2022-10-08T17:57:47.773Z,2.33
2022-10-08T18:00:28.286Z,2.00
2022-10-08T18:03:07.973Z,1.98
2022-10-08T18:05:48.597Z,1.80
2022-10-08T18:08:26.463Z,1.85
2022-10-08T18:11:07.419Z,2.00
2022-10-08T18:13:42.951Z,1.60
2022-10-08T18:16:15.942Z,1.80
2022-10-08T18:18:50.750Z,1.80
2022-10-08T18:21:30.249Z,3.25
2022-10-08T18:24:06.674Z,7.88
2022-10-08T18:26:48.360Z,5.63
2022-10-08T18:29:17.329Z,6.85
2022-10-08T18:31:57.533Z,9.32
2022-10-08T18:34:42.609Z,11.02
2022-10-08T18:37:16.386Z,12.55
2022-10-08T18:39:51.671Z,11.98
2022-10-08T18:42:20.487Z,12.70
2022-10-08T18:44:54.834Z,12.38
2022-10-08T18:47:27.525Z,10.88
2022-10-08T18:49:57.535Z,10.77
2022-10-08T18:52:54.934Z,9.32
2022-10-08T18:55:28.480Z,7.97
2022-10-08T18:58:01.934Z,7.22
2022-10-08T19:00:38.534Z,6.15
2022-10-08T19:03:09.847Z,6.72
2022-10-08T19:05:43.466Z,5.13
2022-10-08T19:08:24.707Z,4.80
2022-10-08T19:10:57.495Z,5.00
2022-10-08T19:13:41.224Z,5.38
2022-10-08T19:16:17.968Z,4.90
2022-10-08T19:18:56.874Z,5.22
2022-10-08T19:21:39.481Z,4.32
2022-10-08T19:24:10.830Z,4.15
2022-10-08T19:26:42.262Z,4.38
2022-10-08T19:29:24.783Z,4.10
2022-10-08T19:32:09.999Z,3.95
2022-10-08T19:34:44.187Z,3.90
2022-10-08T19:37:15.933Z,4.32
2022-10-08T19:39:51.909Z,3.83
2022-10-08T19:42:28.815Z,3.05
2022-10-08T19:45:09.947Z,3.72
2022-10-08T19:47:50.308Z,3.85
2022-10-08T19:50:31.939Z,3.15
2022-10-08T19:53:09.737Z,3.10
2022-10-08T19:55:53.709Z,3.13
2022-10-08T19:58:25.537Z,3.20
2022-10-08T20:01:19.217Z,3.35
2022-10-08T20:03:59.694Z,3.40
2022-10-08T20:06:42.627Z,3.03
2022-10-08T20:09:26.340Z,3.17
2022-10-08T20:12:22.031Z,3.83
2022-10-08T20:15:03.184Z,3.40
2022-10-08T20:17:45.064Z,3.70
2022-10-08T20:20:33.317Z,3.40
2022-10-08T20:23:05.609Z,3.10
2022-10-08T20:25:40.129Z,3.13
2022-10-08T20:31:31.162Z,3.03
2022-10-08T20:34:37.400Z,4.05
2022-10-08T20:37:14.972Z,3.45
2022-10-08T20:39:55.357Z,4.28
2022-10-08T20:42:32.844Z,4.20
2022-10-08T20:45:08.119Z,3.88
2022-10-08T20:47:52.051Z,3.58
2022-10-08T20:50:34.379Z,3.05
2022-10-08T20:53:12.621Z,3.40
2022-10-08T20:55:54.744Z,3.53
2022-10-08T20:58:47.054Z,3.38
2022-10-08T21:01:38.815Z,3.35
2022-10-08T21:04:07.464Z,3.33
2022-10-08T21:06:45.123Z,2.90
2022-10-08T21:09:22.878Z,3.10
2022-10-08T21:11:54.709Z,2.63
2022-10-08T21:14:35.883Z,2.97
2022-10-08T21:17:15.724Z,2.95
2022-10-08T21:19:50.991Z,2.78
2022-10-08T21:22:23.162Z,3.58
2022-10-08T21:25:02.686Z,3.30
2022-10-08T21:27:42.585Z,3.00
2022-10-08T21:30:27.221Z,3.25
2022-10-08T21:33:04.321Z,3.08
2022-10-08T21:35:39.649Z,2.92
2022-10-08T21:38:20.114Z,3.13
2022-10-08T21:41:15.241Z,3.45
2022-10-08T21:44:00.624Z,3.17
2022-10-08T21:46:40.999Z,3.33
2022-10-08T21:52:17.114Z,3.30
2022-10-08T21:54:45.549Z,3.17
2022-10-08T21:57:16.347Z,3.60
2022-10-08T21:59:49.525Z,3.30
2022-10-08T22:02:20.590Z,3.70
2022-10-08T22:05:11.043Z,3.22
2022-10-08T22:07:52.869Z,3.40
2022-10-08T22:10:27.014Z,3.20
2022-10-08T22:16:07.866Z,3.17
2022-10-08T22:18:40.088Z,2.90
2022-10-08T22:21:51.354Z,2.47
2022-10-08T22:27:54.870Z,2.08
2022-10-08T22:30:51.303Z,2.60
2022-10-08T22:34:16.863Z,2.40
2022-10-08T22:40:23.383Z,2.53
2022-10-08T22:45:52.833Z,2.47
2022-10-08T22:52:13.519Z,1.83
2022-10-08T22:54:55.736Z,2.65
2022-10-08T23:00:42.806Z,2.75
2022-10-08T23:03:33.170Z,2.15
2022-10-08T23:07:00.800Z,1.85
2022-10-08T23:12:47.898Z,2.35
2022-10-08T23:15:50.604Z,2.90
2022-10-08T23:18:53.949Z,2.78
2022-10-08T23:25:43.824Z,3.10
2022-10-08T23:28:24.028Z,3.20
2022-10-08T23:31:37.176Z,2.72
2022-10-08T23:34:22.105Z,3.97
2022-10-08T23:36:57.005Z,3.85
2022-10-08T23:39:50.793Z,3.60
2022-10-08T23:42:34.088Z,3.83
2022-10-08T23:50:45.384Z,3.88
2022-10-08T23:53:19.156Z,3.50
2022-10-08T23:56:10.383Z,3.35
2022-10-08T23:58:51.925Z,3.03
